sensor_id;sensor_type;location;lat;lon;timestamp;P1;durP1;ratioP1;P2;durP2;ratioP2
29934;SDS011;19905;53.370;-6.314;2023-07-31T00:02:27;7.75;;;1.77;;
29934;SDS011;19905;53.370;-6.314;2023-07-31T00:04:58;5.00;;;1.90;;
29934;SDS011;19905;53.370;-6.314;2023-07-31T00:10:28;6.88;;;1.60;;
29934;SDS011;19905;53.370;-6.314;2023-07-31T00:13:20;4.15;;;1.60;;
29934;SDS011;19905;53.370;-6.314;2023-07-31T00:16:09;3.53;;;1.45;;
29934;SDS011;19905;53.370;-6.314;2023-07-31T00:22:03;4.90;;;1.77;;
29934;SDS011;19905;53.370;-6.314;2023-07-31T00:24:43;5.65;;;1.80;;
29934;SDS011;19905;53.370;-6.314;2023-07-31T00:27:38;7.18;;;1.88;;
29934;SDS011;19905;53.370;-6.314;2023-07-31T00:30:13;6.40;;;1.80;;
29934;SDS011;19905;53.370;-6.314;2023-07-31T00:35:34;6.53;;;2.00;;
29934;SDS011;19905;53.370;-6.314;2023-07-31T00:38:10;7.88;;;2.10;;
29934;SDS011;19905;53.370;-6.314;2023-07-31T00:43:21;5.32;;;1.90;;
29934;SDS011;19905;53.370;-6.314;2023-07-31T00:45:52;6.20;;;1.92;;
29934;SDS011;19905;53.370;-6.314;2023-07-31T00:48:21;6.68;;;1.83;;
29934;SDS011;19905;53.370;-6.314;2023-07-31T00:50:52;5.30;;;2.25;;
29934;SDS011;19905;53.370;-6.314;2023-07-31T00:53:34;5.70;;;1.95;;
29934;SDS011;19905;53.370;-6.314;2023-07-31T00:56:05;5.65;;;1.52;;
29934;SDS011;19905;53.370;-6.314;2023-07-31T00:58:37;4.65;;;1.65;;
29934;SDS011;19905;53.370;-6.314;2023-07-31T01:01:11;3.88;;;1.73;;
29934;SDS011;19905;53.370;-6.314;2023-07-31T01:03:58;4.72;;;1.90;;
29934;SDS011;19905;53.370;-6.314;2023-07-31T01:06:31;3.30;;;1.60;;
29934;SDS011;19905;53.370;-6.314;2023-07-31T01:14:51;4.70;;;1.50;;
29934;SDS011;19905;53.370;-6.314;2023-07-31T01:17:23;6.90;;;1.50;;
29934;SDS011;19905;53.370;-6.314;2023-07-31T01:19:52;3.83;;;1.60;;
29934;SDS011;19905;53.370;-6.314;2023-07-31T01:22:38;6.40;;;1.42;;
29934;SDS011;19905;53.370;-6.314;2023-07-31T01:25:29;5.43;;;1.30;;
29934;SDS011;19905;53.370;-6.314;2023-07-31T01:28:20;6.85;;;1.40;;
29934;SDS011;19905;53.370;-6.314;2023-07-31T01:30:53;3.45;;;1.38;;
29934;SDS011;19905;53.370;-6.314;2023-07-31T01:33:27;3.85;;;1.33;;
29934;SDS011;19905;53.370;-6.314;2023-07-31T01:36:04;7.57;;;1.60;;
29934;SDS011;19905;53.370;-6.314;2023-07-31T01:38:41;3.42;;;1.45;;
29934;SDS011;19905;53.370;-6.314;2023-07-31T01:41:16;1.65;;;1.10;;
29934;SDS011;19905;53.370;-6.314;2023-07-31T01:43:46;3.85;;;1.20;;
29934;SDS011;19905;53.370;-6.314;2023-07-31T01:46:22;2.80;;;1.38;;
29934;SDS011;19905;53.370;-6.314;2023-07-31T01:48:52;4.30;;;1.30;;
29934;SDS011;19905;53.370;-6.314;2023-07-31T01:51:20;3.63;;;1.70;;
29934;SDS011;19905;53.370;-6.314;2023-07-31T01:53:50;8.02;;;1.50;;
29934;SDS011;19905;53.370;-6.314;2023-07-31T01:56:22;6.40;;;1.40;;
29934;SDS011;19905;53.370;-6.314;2023-07-31T01:58:51;3.20;;;1.35;;
29934;SDS011;19905;53.370;-6.314;2023-07-31T02:01:26;4.22;;;1.40;;
29934;SDS011;19905;53.370;-6.314;2023-07-31T02:09:10;5.47;;;1.38;;
29934;SDS011;19905;53.370;-6.314;2023-07-31T02:11:42;3.42;;;1.42;;
29934;SDS011;19905;53.370;-6.314;2023-07-31T02:14:20;3.20;;;1.35;;
29934;SDS011;19905;53.370;-6.314;2023-07-31T02:16:52;4.85;;;1.50;;
29934;SDS011;19905;53.370;-6.314;2023-07-31T02:22:05;6.32;;;1.50;;
29934;SDS011;19905;53.370;-6.314;2023-07-31T02:24:48;2.80;;;1.33;;
29934;SDS011;19905;53.370;-6.314;2023-07-31T02:27:21;4.57;;;1.33;;
29934;SDS011;19905;53.370;-6.314;2023-07-31T02:29:54;3.25;;;1.20;;
29934;SDS011;19905;53.370;-6.314;2023-07-31T02:32:27;3.90;;;1.40;;
29934;SDS011;19905;53.370;-6.314;2023-07-31T02:37:29;4.43;;;1.40;;
29934;SDS011;19905;53.370;-6.314;2023-07-31T02:39:59;4.38;;;1.35;;
29934;SDS011;19905;53.370;-6.314;2023-07-31T02:42:31;3.20;;;1.25;;
29934;SDS011;19905;53.370;-6.314;2023-07-31T02:45:01;3.08;;;1.10;;
29934;SDS011;19905;53.370;-6.314;2023-07-31T02:50:14;2.97;;;1.30;;
29934;SDS011;19905;53.370;-6.314;2023-07-31T02:52:50;5.13;;;1.10;;
29934;SDS011;19905;53.370;-6.314;2023-07-31T02:55:21;5.15;;;1.17;;
29934;SDS011;19905;53.370;-6.314;2023-07-31T02:57:58;3.20;;;1.00;;
29934;SDS011;19905;53.370;-6.314;2023-07-31T03:00:33;3.53;;;1.08;;
29934;SDS011;19905;53.370;-6.314;2023-07-31T03:03:04;2.92;;;1.00;;
29934;SDS011;19905;53.370;-6.314;2023-07-31T03:08:43;2.35;;;1.00;;
29934;SDS011;19905;53.370;-6.314;2023-07-31T03:11:33;1.90;;;0.75;;
29934;SDS011;19905;53.370;-6.314;2023-07-31T03:14:06;2.20;;;0.95;;
29934;SDS011;19905;53.370;-6.314;2023-07-31T03:19:48;3.33;;;0.80;;
29934;SDS011;19905;53.370;-6.314;2023-07-31T03:24:58;3.08;;;0.80;;
29934;SDS011;19905;53.370;-6.314;2023-07-31T03:27:27;1.67;;;0.90;;
29934;SDS011;19905;53.370;-6.314;2023-07-31T03:29:57;1.25;;;0.70;;
29934;SDS011;19905;53.370;-6.314;2023-07-31T03:32:30;5.00;;;0.90;;
29934;SDS011;19905;53.370;-6.314;2023-07-31T03:34:58;1.45;;;0.80;;
29934;SDS011;19905;53.370;-6.314;2023-07-31T03:40:00;2.20;;;0.70;;
29934;SDS011;19905;53.370;-6.314;2023-07-31T03:42:30;4.53;;;0.90;;
29934;SDS011;19905;53.370;-6.314;2023-07-31T03:45:02;3.00;;;0.77;;
29934;SDS011;19905;53.370;-6.314;2023-07-31T03:47:31;1.83;;;0.70;;
29934;SDS011;19905;53.370;-6.314;2023-07-31T03:50:07;1.52;;;0.73;;
29934;SDS011;19905;53.370;-6.314;2023-07-31T03:52:49;2.08;;;0.60;;
29934;SDS011;19905;53.370;-6.314;2023-07-31T03:55:19;1.95;;;0.70;;
29934;SDS011;19905;53.370;-6.314;2023-07-31T03:57:54;3.35;;;0.82;;
29934;SDS011;19905;53.370;-6.314;2023-07-31T04:00:24;1.60;;;0.73;;
29934;SDS011;19905;53.370;-6.314;2023-07-31T04:02:54;1.35;;;0.70;;
29934;SDS011;19905;53.370;-6.314;2023-07-31T04:07:56;2.20;;;0.70;;
29934;SDS011;19905;53.370;-6.314;2023-07-31T04:10:30;1.23;;;0.70;;
29934;SDS011;19905;53.370;-6.314;2023-07-31T04:13:06;1.95;;;0.70;;
29934;SDS011;19905;53.370;-6.314;2023-07-31T04:15:38;3.33;;;0.80;;
29934;SDS011;19905;53.370;-6.314;2023-07-31T04:18:09;1.80;;;0.85;;
29934;SDS011;19905;53.370;-6.314;2023-07-31T04:23:22;1.90;;;0.80;;
29934;SDS011;19905;53.370;-6.314;2023-07-31T04:25:51;3.42;;;0.60;;
29934;SDS011;19905;53.370;-6.314;2023-07-31T04:28:24;3.47;;;0.70;;
29934;SDS011;19905;53.370;-6.314;2023-07-31T04:30:56;2.05;;;0.70;;
29934;SDS011;19905;53.370;-6.314;2023-07-31T04:33:26;2.67;;;0.73;;
29934;SDS011;19905;53.370;-6.314;2023-07-31T04:35:55;1.73;;;0.60;;
29934;SDS011;19905;53.370;-6.314;2023-07-31T04:38:24;3.75;;;0.80;;
29934;SDS011;19905;53.370;-6.314;2023-07-31T04:40:59;2.63;;;0.70;;
29934;SDS011;19905;53.370;-6.314;2023-07-31T04:43:28;1.92;;;0.70;;
29934;SDS011;19905;53.370;-6.314;2023-07-31T04:46:04;2.67;;;0.90;;
29934;SDS011;19905;53.370;-6.314;2023-07-31T04:48:33;3.20;;;0.90;;
29934;SDS011;19905;53.370;-6.314;2023-07-31T04:51:03;3.05;;;0.80;;
29934;SDS011;19905;53.370;-6.314;2023-07-31T04:53:34;2.25;;;0.90;;
29934;SDS011;19905;53.370;-6.314;2023-07-31T04:56:04;1.83;;;0.80;;
29934;SDS011;19905;53.370;-6.314;2023-07-31T04:58:36;2.08;;;0.82;;
29934;SDS011;19905;53.370;-6.314;2023-07-31T05:01:06;3.13;;;0.77;;
29934;SDS011;19905;53.370;-6.314;2023-07-31T05:03:35;1.85;;;0.70;;
29934;SDS011;19905;53.370;-6.314;2023-07-31T05:06:05;3.42;;;1.00;;
29934;SDS011;19905;53.370;-6.314;2023-07-31T05:08:35;1.73;;;0.65;;
29934;SDS011;19905;53.370;-6.314;2023-07-31T05:13:52;1.80;;;0.75;;
29934;SDS011;19905;53.370;-6.314;2023-07-31T05:16:23;2.30;;;0.90;;
29934;SDS011;19905;53.370;-6.314;2023-07-31T05:19:01;3.42;;;0.95;;
29934;SDS011;19905;53.370;-6.314;2023-07-31T05:21:29;3.08;;;1.00;;
29934;SDS011;19905;53.370;-6.314;2023-07-31T05:24:01;3.20;;;0.95;;
29934;SDS011;19905;53.370;-6.314;2023-07-31T05:26:30;5.72;;;1.10;;
29934;SDS011;19905;53.370;-6.314;2023-07-31T05:29:02;2.63;;;1.00;;
29934;SDS011;19905;53.370;-6.314;2023-07-31T05:31:35;3.95;;;1.40;;
29934;SDS011;19905;53.370;-6.314;2023-07-31T05:34:07;5.75;;;1.33;;
29934;SDS011;19905;53.370;-6.314;2023-07-31T05:36:38;4.82;;;1.20;;
29934;SDS011;19905;53.370;-6.314;2023-07-31T05:39:07;3.20;;;1.60;;
29934;SDS011;19905;53.370;-6.314;2023-07-31T05:41:36;6.05;;;1.40;;
29934;SDS011;19905;53.370;-6.314;2023-07-31T05:44:04;6.85;;;1.70;;
29934;SDS011;19905;53.370;-6.314;2023-07-31T05:46:37;6.32;;;2.00;;
29934;SDS011;19905;53.370;-6.314;2023-07-31T05:49:12;6.57;;;1.80;;
29934;SDS011;19905;53.370;-6.314;2023-07-31T05:51:43;6.03;;;1.67;;
29934;SDS011;19905;53.370;-6.314;2023-07-31T06:01:56;7.72;;;1.80;;
29934;SDS011;19905;53.370;-6.314;2023-07-31T06:07:04;7.13;;;2.05;;
29934;SDS011;19905;53.370;-6.314;2023-07-31T06:09:34;11.77;;;2.20;;
29934;SDS011;19905;53.370;-6.314;2023-07-31T06:12:04;5.82;;;1.67;;
29934;SDS011;19905;53.370;-6.314;2023-07-31T06:14:40;6.65;;;2.20;;
29934;SDS011;19905;53.370;-6.314;2023-07-31T06:17:12;7.10;;;2.20;;
29934;SDS011;19905;53.370;-6.314;2023-07-31T06:19:41;6.78;;;2.05;;
29934;SDS011;19905;53.370;-6.314;2023-07-31T06:22:10;9.52;;;2.00;;
29934;SDS011;19905;53.370;-6.314;2023-07-31T06:24:39;8.45;;;2.38;;
29934;SDS011;19905;53.370;-6.314;2023-07-31T06:27:08;8.10;;;2.67;;
29934;SDS011;19905;53.370;-6.314;2023-07-31T06:29:37;9.70;;;3.05;;
29934;SDS011;19905;53.370;-6.314;2023-07-31T06:32:07;8.25;;;2.50;;
29934;SDS011;19905;53.370;-6.314;2023-07-31T06:34:38;8.88;;;2.80;;
29934;SDS011;19905;53.370;-6.314;2023-07-31T06:37:07;10.27;;;2.72;;
29934;SDS011;19905;53.370;-6.314;2023-07-31T06:39:36;7.78;;;2.50;;
29934;SDS011;19905;53.370;-6.314;2023-07-31T06:42:06;8.77;;;2.47;;
29934;SDS011;19905;53.370;-6.314;2023-07-31T06:44:36;10.80;;;3.08;;
29934;SDS011;19905;53.370;-6.314;2023-07-31T06:47:10;8.68;;;2.88;;
29934;SDS011;19905;53.370;-6.314;2023-07-31T06:49:42;10.48;;;3.28;;
29934;SDS011;19905;53.370;-6.314;2023-07-31T06:52:11;9.48;;;2.58;;
29934;SDS011;19905;53.370;-6.314;2023-07-31T06:57:16;8.75;;;3.00;;
29934;SDS011;19905;53.370;-6.314;2023-07-31T06:59:44;8.75;;;2.55;;
29934;SDS011;19905;53.370;-6.314;2023-07-31T07:02:15;15.18;;;3.28;;
29934;SDS011;19905;53.370;-6.314;2023-07-31T07:04:45;9.75;;;2.63;;
29934;SDS011;19905;53.370;-6.314;2023-07-31T07:07:18;7.95;;;2.70;;
29934;SDS011;19905;53.370;-6.314;2023-07-31T07:09:47;10.73;;;2.70;;
29934;SDS011;19905;53.370;-6.314;2023-07-31T07:12:16;8.73;;;2.85;;
29934;SDS011;19905;53.370;-6.314;2023-07-31T07:14:47;8.30;;;2.70;;
29934;SDS011;19905;53.370;-6.314;2023-07-31T07:20:09;10.32;;;2.88;;
29934;SDS011;19905;53.370;-6.314;2023-07-31T07:22:51;8.88;;;2.33;;
29934;SDS011;19905;53.370;-6.314;2023-07-31T07:25:38;11.35;;;2.75;;
29934;SDS011;19905;53.370;-6.314;2023-07-31T07:30:58;9.65;;;2.38;;
29934;SDS011;19905;53.370;-6.314;2023-07-31T07:36:46;9.07;;;2.10;;
29934;SDS011;19905;53.370;-6.314;2023-07-31T07:39:18;7.82;;;2.58;;
29934;SDS011;19905;53.370;-6.314;2023-07-31T07:41:55;11.70;;;2.40;;
29934;SDS011;19905;53.370;-6.314;2023-07-31T07:44:35;9.68;;;2.33;;
29934;SDS011;19905;53.370;-6.314;2023-07-31T07:50:46;6.30;;;2.40;;
29934;SDS011;19905;53.370;-6.314;2023-07-31T08:08:31;7.38;;;1.70;;
29934;SDS011;19905;53.370;-6.314;2023-07-31T08:22:31;9.75;;;1.90;;
29934;SDS011;19905;53.370;-6.314;2023-07-31T09:08:21;20.58;;;3.17;;
29934;SDS011;19905;53.370;-6.314;2023-07-31T09:14:33;14.85;;;3.10;;
29934;SDS011;19905;53.370;-6.314;2023-07-31T10:39:36;16.27;;;3.40;;
29934;SDS011;19905;53.370;-6.314;2023-07-31T11:52:54;16.35;;;3.20;;
29934;SDS011;19905;53.370;-6.314;2023-07-31T11:59:39;16.05;;;3.20;;
29934;SDS011;19905;53.370;-6.314;2023-07-31T13:14:49;9.60;;;2.00;;
29934;SDS011;19905;53.370;-6.314;2023-07-31T13:20:54;10.98;;;2.40;;
29934;SDS011;19905;53.370;-6.314;2023-07-31T13:24:39;9.18;;;2.70;;
29934;SDS011;19905;53.370;-6.314;2023-07-31T13:30:33;12.32;;;2.40;;
29934;SDS011;19905;53.370;-6.314;2023-07-31T13:33:08;8.70;;;2.25;;
29934;SDS011;19905;53.370;-6.314;2023-07-31T13:38:54;13.10;;;2.25;;
29934;SDS011;19905;53.370;-6.314;2023-07-31T13:41:59;11.35;;;2.60;;
29934;SDS011;19905;53.370;-6.314;2023-07-31T13:44:59;10.32;;;2.30;;
29934;SDS011;19905;53.370;-6.314;2023-07-31T13:51:21;13.95;;;2.72;;
29934;SDS011;19905;53.370;-6.314;2023-07-31T13:53:50;11.30;;;2.58;;
29934;SDS011;19905;53.370;-6.314;2023-07-31T13:58:58;12.10;;;2.72;;
29934;SDS011;19905;53.370;-6.314;2023-07-31T14:01:28;8.15;;;2.10;;
29934;SDS011;19905;53.370;-6.314;2023-07-31T14:04:05;13.18;;;3.10;;
29934;SDS011;19905;53.370;-6.314;2023-07-31T14:06:34;8.00;;;2.53;;
29934;SDS011;19905;53.370;-6.314;2023-07-31T14:09:04;10.45;;;2.42;;
29934;SDS011;19905;53.370;-6.314;2023-07-31T14:11:34;15.50;;;2.70;;
29934;SDS011;19905;53.370;-6.314;2023-07-31T14:14:06;10.77;;;2.25;;
29934;SDS011;19905;53.370;-6.314;2023-07-31T14:16:35;9.43;;;2.03;;
29934;SDS011;19905;53.370;-6.314;2023-07-31T14:19:09;7.00;;;2.10;;
29934;SDS011;19905;53.370;-6.314;2023-07-31T14:21:38;12.00;;;2.58;;
29934;SDS011;19905;53.370;-6.314;2023-07-31T14:24:07;7.90;;;1.90;;
29934;SDS011;19905;53.370;-6.314;2023-07-31T14:26:40;7.32;;;2.20;;
29934;SDS011;19905;53.370;-6.314;2023-07-31T14:29:11;7.20;;;1.80;;
29934;SDS011;19905;53.370;-6.314;2023-07-31T14:31:39;8.95;;;1.92;;
29934;SDS011;19905;53.370;-6.314;2023-07-31T14:34:10;8.40;;;1.90;;
29934;SDS011;19905;53.370;-6.314;2023-07-31T14:36:39;9.13;;;2.33;;
29934;SDS011;19905;53.370;-6.314;2023-07-31T14:39:09;9.18;;;2.10;;
29934;SDS011;19905;53.370;-6.314;2023-07-31T14:41:39;9.80;;;2.20;;
29934;SDS011;19905;53.370;-6.314;2023-07-31T14:44:08;9.82;;;2.17;;
29934;SDS011;19905;53.370;-6.314;2023-07-31T14:46:37;9.88;;;2.08;;
29934;SDS011;19905;53.370;-6.314;2023-07-31T14:49:12;10.50;;;1.98;;
29934;SDS011;19905;53.370;-6.314;2023-07-31T14:51:41;9.65;;;2.00;;
29934;SDS011;19905;53.370;-6.314;2023-07-31T14:54:15;12.05;;;1.80;;
29934;SDS011;19905;53.370;-6.314;2023-07-31T14:56:44;7.65;;;1.80;;
29934;SDS011;19905;53.370;-6.314;2023-07-31T14:59:12;7.82;;;1.67;;
29934;SDS011;19905;53.370;-6.314;2023-07-31T15:01:42;8.32;;;1.60;;
29934;SDS011;19905;53.370;-6.314;2023-07-31T15:04:12;4.10;;;1.20;;
29934;SDS011;19905;53.370;-6.314;2023-07-31T15:06:43;7.40;;;1.67;;
29934;SDS011;19905;53.370;-6.314;2023-07-31T15:09:14;7.93;;;1.83;;
29934;SDS011;19905;53.370;-6.314;2023-07-31T15:11:49;5.43;;;1.73;;
29934;SDS011;19905;53.370;-6.314;2023-07-31T15:14:19;6.47;;;1.52;;
29934;SDS011;19905;53.370;-6.314;2023-07-31T15:16:49;7.97;;;2.08;;
29934;SDS011;19905;53.370;-6.314;2023-07-31T15:19:24;6.70;;;1.55;;
29934;SDS011;19905;53.370;-6.314;2023-07-31T15:21:55;8.15;;;1.58;;
29934;SDS011;19905;53.370;-6.314;2023-07-31T15:24:25;6.03;;;1.45;;
29934;SDS011;19905;53.370;-6.314;2023-07-31T15:26:58;7.07;;;1.50;;
29934;SDS011;19905;53.370;-6.314;2023-07-31T15:29:28;13.00;;;1.98;;
29934;SDS011;19905;53.370;-6.314;2023-07-31T15:32:18;7.45;;;2.00;;
29934;SDS011;19905;53.370;-6.314;2023-07-31T15:34:49;8.55;;;2.20;;
29934;SDS011;19905;53.370;-6.314;2023-07-31T15:37:35;12.10;;;2.35;;
29934;SDS011;19905;53.370;-6.314;2023-07-31T15:40:05;15.32;;;2.40;;
29934;SDS011;19905;53.370;-6.314;2023-07-31T15:42:35;14.60;;;2.60;;
29934;SDS011;19905;53.370;-6.314;2023-07-31T15:45:07;12.55;;;2.88;;
29934;SDS011;19905;53.370;-6.314;2023-07-31T15:47:37;13.55;;;2.55;;
29934;SDS011;19905;53.370;-6.314;2023-07-31T15:50:08;14.50;;;2.85;;
29934;SDS011;19905;53.370;-6.314;2023-07-31T15:52:37;14.77;;;2.90;;
29934;SDS011;19905;53.370;-6.314;2023-07-31T15:55:06;15.75;;;2.85;;
29934;SDS011;19905;53.370;-6.314;2023-07-31T15:57:37;10.93;;;2.60;;
29934;SDS011;19905;53.370;-6.314;2023-07-31T16:00:06;13.95;;;2.38;;
29934;SDS011;19905;53.370;-6.314;2023-07-31T16:02:36;13.98;;;2.60;;
29934;SDS011;19905;53.370;-6.314;2023-07-31T16:05:07;15.25;;;2.55;;
29934;SDS011;19905;53.370;-6.314;2023-07-31T16:10:37;8.57;;;2.05;;
29934;SDS011;19905;53.370;-6.314;2023-07-31T16:13:06;9.57;;;2.10;;
29934;SDS011;19905;53.370;-6.314;2023-07-31T16:15:35;8.60;;;1.90;;
29934;SDS011;19905;53.370;-6.314;2023-07-31T16:18:05;10.82;;;2.05;;
29934;SDS011;19905;53.370;-6.314;2023-07-31T16:20:39;6.68;;;1.60;;
29934;SDS011;19905;53.370;-6.314;2023-07-31T16:23:08;7.45;;;2.00;;
29934;SDS011;19905;53.370;-6.314;2023-07-31T16:25:37;11.27;;;2.10;;
29934;SDS011;19905;53.370;-6.314;2023-07-31T16:28:08;7.20;;;2.00;;
29934;SDS011;19905;53.370;-6.314;2023-07-31T16:30:38;9.95;;;2.47;;
29934;SDS011;19905;53.370;-6.314;2023-07-31T16:33:08;7.80;;;2.10;;
29934;SDS011;19905;53.370;-6.314;2023-07-31T16:35:40;9.40;;;2.20;;
29934;SDS011;19905;53.370;-6.314;2023-07-31T16:38:10;11.15;;;2.40;;
29934;SDS011;19905;53.370;-6.314;2023-07-31T16:40:41;10.55;;;2.38;;
29934;SDS011;19905;53.370;-6.314;2023-07-31T16:43:16;11.35;;;2.05;;
29934;SDS011;19905;53.370;-6.314;2023-07-31T16:45:47;9.85;;;2.03;;
29934;SDS011;19905;53.370;-6.314;2023-07-31T16:50:52;10.55;;;2.20;;
29934;SDS011;19905;53.370;-6.314;2023-07-31T16:53:22;9.95;;;2.20;;
29934;SDS011;19905;53.370;-6.314;2023-07-31T16:56:07;9.65;;;1.80;;
29934;SDS011;19905;53.370;-6.314;2023-07-31T16:58:38;10.48;;;2.03;;
29934;SDS011;19905;53.370;-6.314;2023-07-31T17:01:09;12.63;;;2.30;;
29934;SDS011;19905;53.370;-6.314;2023-07-31T17:03:42;9.00;;;2.33;;
29934;SDS011;19905;53.370;-6.314;2023-07-31T17:06:48;7.38;;;2.10;;
29934;SDS011;19905;53.370;-6.314;2023-07-31T17:14:52;10.23;;;2.22;;
29934;SDS011;19905;53.370;-6.314;2023-07-31T17:17:29;8.50;;;2.10;;
29934;SDS011;19905;53.370;-6.314;2023-07-31T17:20:07;7.40;;;2.05;;
29934;SDS011;19905;53.370;-6.314;2023-07-31T17:22:48;8.95;;;2.00;;
29934;SDS011;19905;53.370;-6.314;2023-07-31T17:44:04;6.80;;;1.70;;
29934;SDS011;19905;53.370;-6.314;2023-07-31T17:46:32;5.43;;;1.40;;
29934;SDS011;19905;53.370;-6.314;2023-07-31T17:49:01;5.28;;;1.50;;
29934;SDS011;19905;53.370;-6.314;2023-07-31T17:51:30;5.40;;;1.33;;
29934;SDS011;19905;53.370;-6.314;2023-07-31T17:54:00;6.55;;;1.60;;
29934;SDS011;19905;53.370;-6.314;2023-07-31T17:56:28;5.82;;;1.73;;
29934;SDS011;19905;53.370;-6.314;2023-07-31T17:58:58;5.50;;;1.33;;
29934;SDS011;19905;53.370;-6.314;2023-07-31T18:01:28;5.45;;;1.48;;
29934;SDS011;19905;53.370;-6.314;2023-07-31T18:03:57;5.82;;;1.52;;
29934;SDS011;19905;53.370;-6.314;2023-07-31T18:06:25;8.52;;;1.90;;
29934;SDS011;19905;53.370;-6.314;2023-07-31T18:08:55;7.22;;;1.48;;
29934;SDS011;19905;53.370;-6.314;2023-07-31T18:11:23;5.93;;;1.50;;
29934;SDS011;19905;53.370;-6.314;2023-07-31T18:13:53;6.03;;;1.50;;
29934;SDS011;19905;53.370;-6.314;2023-07-31T18:16:22;9.20;;;1.60;;
29934;SDS011;19905;53.370;-6.314;2023-07-31T18:18:52;6.97;;;1.80;;
29934;SDS011;19905;53.370;-6.314;2023-07-31T18:21:21;8.95;;;1.85;;
29934;SDS011;19905;53.370;-6.314;2023-07-31T18:23:50;4.95;;;1.63;;
29934;SDS011;19905;53.370;-6.314;2023-07-31T18:26:25;6.72;;;1.60;;
29934;SDS011;19905;53.370;-6.314;2023-07-31T18:28:54;6.18;;;1.63;;
29934;SDS011;19905;53.370;-6.314;2023-07-31T18:31:23;5.50;;;1.80;;
29934;SDS011;19905;53.370;-6.314;2023-07-31T18:33:53;7.90;;;1.60;;
29934;SDS011;19905;53.370;-6.314;2023-07-31T18:36:23;7.47;;;1.63;;
29934;SDS011;19905;53.370;-6.314;2023-07-31T18:38:52;6.18;;;1.60;;
29934;SDS011;19905;53.370;-6.314;2023-07-31T18:41:23;8.52;;;2.00;;
29934;SDS011;19905;53.370;-6.314;2023-07-31T18:43:53;8.13;;;1.80;;
29934;SDS011;19905;53.370;-6.314;2023-07-31T18:46:21;6.80;;;1.70;;
29934;SDS011;19905;53.370;-6.314;2023-07-31T18:48:50;6.05;;;1.60;;
29934;SDS011;19905;53.370;-6.314;2023-07-31T18:51:20;10.88;;;2.38;;
29934;SDS011;19905;53.370;-6.314;2023-07-31T18:53:48;10.50;;;1.95;;
29934;SDS011;19905;53.370;-6.314;2023-07-31T18:56:16;11.88;;;2.10;;
29934;SDS011;19905;53.370;-6.314;2023-07-31T18:58:45;9.40;;;1.88;;
29934;SDS011;19905;53.370;-6.314;2023-07-31T19:01:16;7.75;;;2.00;;
29934;SDS011;19905;53.370;-6.314;2023-07-31T19:03:45;10.90;;;2.30;;
29934;SDS011;19905;53.370;-6.314;2023-07-31T19:06:13;9.23;;;2.20;;
29934;SDS011;19905;53.370;-6.314;2023-07-31T19:08:43;11.02;;;2.00;;
29934;SDS011;19905;53.370;-6.314;2023-07-31T19:11:12;13.00;;;2.35;;
29934;SDS011;19905;53.370;-6.314;2023-07-31T19:13:57;14.68;;;2.55;;
29934;SDS011;19905;53.370;-6.314;2023-07-31T19:16:26;8.95;;;1.65;;
29934;SDS011;19905;53.370;-6.314;2023-07-31T19:18:55;17.70;;;2.50;;
29934;SDS011;19905;53.370;-6.314;2023-07-31T19:21:24;10.73;;;2.03;;
29934;SDS011;19905;53.370;-6.314;2023-07-31T19:23:55;13.95;;;2.13;;
29934;SDS011;19905;53.370;-6.314;2023-07-31T19:26:23;10.02;;;2.20;;
29934;SDS011;19905;53.370;-6.314;2023-07-31T19:28:52;10.77;;;2.25;;
29934;SDS011;19905;53.370;-6.314;2023-07-31T19:31:20;11.27;;;2.35;;
29934;SDS011;19905;53.370;-6.314;2023-07-31T19:33:49;12.85;;;2.40;;
29934;SDS011;19905;53.370;-6.314;2023-07-31T19:36:18;12.55;;;2.28;;
29934;SDS011;19905;53.370;-6.314;2023-07-31T19:38:46;15.52;;;2.60;;
29934;SDS011;19905;53.370;-6.314;2023-07-31T19:41:16;16.50;;;2.60;;
29934;SDS011;19905;53.370;-6.314;2023-07-31T19:43:45;14.15;;;2.60;;
29934;SDS011;19905;53.370;-6.314;2023-07-31T19:46:15;12.32;;;2.35;;
29934;SDS011;19905;53.370;-6.314;2023-07-31T19:48:44;11.25;;;2.65;;
29934;SDS011;19905;53.370;-6.314;2023-07-31T19:51:12;12.02;;;2.22;;
29934;SDS011;19905;53.370;-6.314;2023-07-31T19:53:41;14.20;;;2.60;;
29934;SDS011;19905;53.370;-6.314;2023-07-31T19:56:10;13.43;;;2.28;;
29934;SDS011;19905;53.370;-6.314;2023-07-31T19:58:41;13.48;;;2.67;;
29934;SDS011;19905;53.370;-6.314;2023-07-31T20:01:09;11.02;;;2.05;;
29934;SDS011;19905;53.370;-6.314;2023-07-31T20:03:38;11.45;;;2.50;;
29934;SDS011;19905;53.370;-6.314;2023-07-31T20:06:07;17.00;;;2.45;;
29934;SDS011;19905;53.370;-6.314;2023-07-31T20:08:35;10.73;;;2.08;;
29934;SDS011;19905;53.370;-6.314;2023-07-31T20:11:04;12.82;;;2.10;;
29934;SDS011;19905;53.370;-6.314;2023-07-31T20:13:32;12.88;;;2.00;;
29934;SDS011;19905;53.370;-6.314;2023-07-31T20:16:03;11.07;;;2.10;;
29934;SDS011;19905;53.370;-6.314;2023-07-31T20:18:32;10.90;;;2.03;;
29934;SDS011;19905;53.370;-6.314;2023-07-31T20:21:01;12.05;;;2.20;;
29934;SDS011;19905;53.370;-6.314;2023-07-31T20:23:29;11.68;;;1.85;;
29934;SDS011;19905;53.370;-6.314;2023-07-31T20:26:08;15.75;;;2.65;;
29934;SDS011;19905;53.370;-6.314;2023-07-31T20:28:37;12.77;;;2.28;;
29934;SDS011;19905;53.370;-6.314;2023-07-31T20:31:08;10.00;;;1.75;;
29934;SDS011;19905;53.370;-6.314;2023-07-31T20:33:36;13.88;;;2.53;;
29934;SDS011;19905;53.370;-6.314;2023-07-31T20:36:05;15.65;;;2.40;;
29934;SDS011;19905;53.370;-6.314;2023-07-31T20:38:34;14.25;;;2.30;;
29934;SDS011;19905;53.370;-6.314;2023-07-31T20:41:04;12.30;;;2.17;;
29934;SDS011;19905;53.370;-6.314;2023-07-31T20:43:32;14.30;;;2.40;;
29934;SDS011;19905;53.370;-6.314;2023-07-31T20:46:01;16.63;;;2.53;;
29934;SDS011;19905;53.370;-6.314;2023-07-31T20:48:31;11.10;;;2.17;;
29934;SDS011;19905;53.370;-6.314;2023-07-31T20:51:00;13.27;;;2.28;;
29934;SDS011;19905;53.370;-6.314;2023-07-31T20:53:30;16.50;;;2.10;;
29934;SDS011;19905;53.370;-6.314;2023-07-31T20:55:58;11.77;;;2.13;;
29934;SDS011;19905;53.370;-6.314;2023-07-31T20:58:29;14.23;;;2.15;;
29934;SDS011;19905;53.370;-6.314;2023-07-31T21:00:57;14.05;;;2.83;;
29934;SDS011;19905;53.370;-6.314;2023-07-31T21:03:26;10.40;;;2.15;;
29934;SDS011;19905;53.370;-6.314;2023-07-31T21:05:56;11.20;;;2.05;;
29934;SDS011;19905;53.370;-6.314;2023-07-31T21:08:26;9.93;;;2.17;;
29934;SDS011;19905;53.370;-6.314;2023-07-31T21:10:55;9.10;;;1.70;;
29934;SDS011;19905;53.370;-6.314;2023-07-31T21:13:24;16.25;;;2.92;;
29934;SDS011;19905;53.370;-6.314;2023-07-31T21:15:56;15.20;;;2.60;;
29934;SDS011;19905;53.370;-6.314;2023-07-31T21:18:25;18.02;;;2.72;;
29934;SDS011;19905;53.370;-6.314;2023-07-31T21:20:56;15.75;;;2.60;;
29934;SDS011;19905;53.370;-6.314;2023-07-31T21:23:25;18.38;;;2.40;;
29934;SDS011;19905;53.370;-6.314;2023-07-31T21:25:53;16.40;;;2.38;;
29934;SDS011;19905;53.370;-6.314;2023-07-31T21:28:22;18.95;;;2.90;;
29934;SDS011;19905;53.370;-6.314;2023-07-31T21:30:50;17.75;;;2.90;;
29934;SDS011;19905;53.370;-6.314;2023-07-31T21:33:19;18.50;;;2.80;;
29934;SDS011;19905;53.370;-6.314;2023-07-31T21:35:47;18.00;;;2.60;;
29934;SDS011;19905;53.370;-6.314;2023-07-31T21:38:17;18.65;;;2.60;;
29934;SDS011;19905;53.370;-6.314;2023-07-31T21:40:46;12.45;;;2.40;;
29934;SDS011;19905;53.370;-6.314;2023-07-31T21:43:15;15.60;;;2.67;;
29934;SDS011;19905;53.370;-6.314;2023-07-31T21:45:43;14.95;;;2.60;;
29934;SDS011;19905;53.370;-6.314;2023-07-31T21:48:12;16.05;;;2.50;;
29934;SDS011;19905;53.370;-6.314;2023-07-31T21:50:40;21.63;;;2.50;;
29934;SDS011;19905;53.370;-6.314;2023-07-31T21:53:10;19.10;;;2.38;;
29934;SDS011;19905;53.370;-6.314;2023-07-31T21:55:40;13.35;;;2.47;;
29934;SDS011;19905;53.370;-6.314;2023-07-31T21:58:09;12.95;;;2.35;;
29934;SDS011;19905;53.370;-6.314;2023-07-31T22:00:37;18.02;;;2.78;;
29934;SDS011;19905;53.370;-6.314;2023-07-31T22:03:06;16.52;;;3.20;;
29934;SDS011;19905;53.370;-6.314;2023-07-31T22:05:34;16.35;;;2.63;;